Estevan Point, Canada
Current Conditions -  °F | °C
As of 6:00 PM on Saturday 25 Oct 2014 (Local Time) from CYAZ Reporting Station
Light Rain Light Rain  
Wind Chill: 44°   Ceiling: 800
Heat Index: 48°   Visibility: 4mi
Dew Point: 48°   Wind: 10mph
Humidity: 100%   Direction: 300°WNW
Pressure: 29.31"   Gusts: NA
Location:  49.38°N, 126.54°W
Report Text: CYAZ 260100Z 30009KT 4SM -RA BR FEW004 BKN008 BKN020 BKN025 09/09 A2931 RMK SF1SF5SC2SC1 SF TR SC TR CLRG W VIS SW-NW 15 LAST OBS/NEXT 261300UTC SLP927 DENSITY ALT 100FT
Loading
Personal Weather Stations






























Interactive Weather Map New forecast layout! Learn more

10-Day Weather Forecast

Advertisements
Track Severe Weather on mobile